RJFE(METAR)
08/13 14:00
METAR RJFE 130500Z 21010KT 9999 FEW015 SCT025 31/27 Q1013 RMK 1CU015
3CU025 A2992=
戻る
トップページへ戻る
IMOC Co,.Ltd.